Time;durP1;ratioP1;P1;durP2;ratioP2;P2;SDS_P1;SDS_P2;PMS_P1;PMS_P2;Temp;Humidity;BMP_temperature;BMP_pressure;BME280_temperature;BME280_humidity;BME280_pressure;Samples;Min_cycle;Max_cycle;Signal;HPM_P1;HPM_P2
2022/10/26 00:00:37;;;;;;;53.83;11.98;;;18.40;67.90;;;;;;5124593;28;20026;-70
2022/10/26 00:03:03;;;;;;;45.70;11.32;;;18.40;67.30;;;;;;5124529;28;20211;-71
2022/10/26 00:05:32;;;;;;;55.75;12.52;;;18.40;67.30;;;;;;5124502;28;20030;-70
2022/10/26 00:07:58;;;;;;;44.40;11.73;;;18.40;67.30;;;;;;5124423;28;20209;-70
2022/10/26 00:10:24;;;;;;;40.50;10.82;;;18.40;67.30;;;;;;5124404;28;20024;-70
2022/10/26 00:12:50;;;;;;;43.92;11.07;;;18.40;67.30;;;;;;5124335;28;20348;-70
2022/10/26 00:15:17;;;;;;;42.92;11.45;;;18.30;67.30;;;;;;5124257;28;20050;-70
2022/10/26 00:17:43;;;;;;;50.42;12.85;;;18.40;67.30;;;;;;5124293;28;20017;-70
2022/10/26 00:20:09;;;;;;;46.88;10.18;;;18.40;67.20;;;;;;5106108;28;20234;-70
2022/10/26 00:22:36;;;;;;;40.25;10.50;;;18.30;67.20;;;;;;5124235;28;20075;-70
2022/10/26 00:25:01;;;;;;;38.55;10.70;;;18.30;67.20;;;;;;5124245;28;20019;-69
2022/10/26 00:27:27;;;;;;;36.83;10.27;;;18.30;67.20;;;;;;5124140;28;20022;-69
2022/10/26 00:29:53;;;;;;;41.00;11.55;;;18.30;67.20;;;;;;5123961;28;20030;-71
2022/10/26 00:32:19;;;;;;;45.47;11.68;;;18.40;67.30;;;;;;5124122;28;20015;-70
2022/10/26 00:34:45;;;;;;;35.78;11.32;;;18.30;67.20;;;;;;5123664;28;20061;-71
2022/10/26 00:37:11;;;;;;;38.15;10.90;;;18.30;67.20;;;;;;5124038;28;20305;-70
2022/10/26 00:39:37;;;;;;;41.08;9.90;;;18.30;67.80;;;;;;5124038;28;20019;-69
2022/10/26 00:42:03;;;;;;;39.60;10.52;;;18.30;67.20;;;;;;5124040;28;20390;-71
2022/10/26 00:44:47;;;;;;;39.10;10.57;;;18.30;67.10;;;;;;5105648;28;20079;-70
2022/10/26 00:47:27;;;;;;;43.08;8.88;;;18.30;67.10;;;;;;5123997;28;20034;-70
2022/10/26 00:49:55;;;;;;;34.90;10.10;;;18.30;67.10;;;;;;5123987;28;20019;-70
2022/10/26 00:52:22;;;;;;;33.47;9.60;;;18.30;67.20;;;;;;5123951;28;20019;-69
2022/10/26 00:54:48;;;;;;;40.70;11.32;;;18.30;67.20;;;;;;5123823;28;20019;-70
2022/10/26 00:57:15;;;;;;;34.60;9.50;;;18.30;67.80;;;;;;5123874;28;20020;-71
2022/10/26 00:59:45;;;;;;;35.70;9.27;;;18.30;67.20;;;;;;5123886;28;20016;-70
2022/10/26 01:02:11;;;;;;;48.20;11.57;;;18.30;67.20;;;;;;5123816;28;20015;-70
2022/10/26 01:04:38;;;;;;;42.97;9.75;;;18.30;67.20;;;;;;5123780;28;20019;-70
2022/10/26 01:07:05;;;;;;;41.78;13.05;;;18.30;67.20;;;;;;5123802;28;20027;-70
2022/10/26 01:09:32;;;;;;;37.20;9.25;;;18.30;67.10;;;;;;5123788;28;20016;-70
2022/10/26 01:11:57;;;;;;;37.60;9.45;;;18.30;67.20;;;;;;5123732;28;20019;-70
2022/10/26 01:14:26;;;;;;;34.40;10.55;;;18.30;67.20;;;;;;5123622;28;20266;-70
2022/10/26 01:17:45;;;;;;;34.63;9.38;;;18.30;67.20;;;;;;5123696;28;20030;-70
2022/10/26 01:20:52;;;;;;;33.78;9.38;;;18.30;67.10;;;;;;5041017;28;20049;-69
2022/10/26 01:23:29;;;;;;;37.53;9.98;;;18.30;67.10;;;;;;5041178;28;20022;-70
2022/10/26 01:26:13;;;;;;;32.75;9.25;;;18.30;67.20;;;;;;5091459;28;20030;-69
2022/10/26 01:29:05;;;;;;;31.38;10.55;;;18.30;67.20;;;;;;5123632;28;20310;-70
2022/10/26 01:31:56;;;;;;;38.83;9.80;;;18.30;67.10;;;;;;5105387;28;20098;-70
2022/10/26 01:34:35;;;;;;;37.40;9.40;;;18.30;67.10;;;;;;5123511;28;20042;-70
2022/10/26 01:37:10;;;;;;;31.20;8.85;;;18.30;67.20;;;;;;5123576;28;20015;-70
2022/10/26 01:39:53;;;;;;;37.50;9.75;;;18.20;67.10;;;;;;5123510;28;20026;-70
2022/10/26 01:42:22;;;;;;;30.02;8.15;;;18.20;67.10;;;;;;5125851;28;20016;-70
2022/10/26 01:44:58;;;;;;;35.92;9.18;;;18.20;67.10;;;;;;5126996;28;20031;-69
2022/10/26 01:47:26;;;;;;;38.38;10.18;;;18.20;67.10;;;;;;5127187;28;20019;-70
2022/10/26 01:49:55;;;;;;;43.97;10.13;;;18.30;67.80;;;;;;5127073;28;20027;-70
2022/10/26 01:52:22;;;;;;;31.88;8.95;;;18.20;67.10;;;;;;5127061;28;20016;-70
2022/10/26 01:54:48;;;;;;;33.83;8.98;;;18.20;67.10;;;;;;5126899;28;20031;-70
2022/10/26 01:57:18;;;;;;;32.22;9.38;;;18.20;66.90;;;;;;5126947;28;20348;-70
2022/10/26 01:59:55;;;;;;;28.50;8.45;;;18.20;67.00;;;;;;5108677;28;20034;-71
2022/10/26 02:02:52;;;;;;;36.60;9.13;;;18.20;66.90;;;;;;5126910;28;20346;-70
2022/10/26 02:05:27;;;;;;;26.42;8.15;;;18.20;67.00;;;;;;5126845;28;20027;-70
2022/10/26 02:08:08;;;;;;;33.00;9.05;;;18.20;67.00;;;;;;5126751;28;20078;-69
2022/10/26 02:10:45;;;;;;;31.77;9.15;;;18.20;66.90;;;;;;5126720;28;20062;-71
2022/10/26 02:13:20;;;;;;;34.05;10.00;;;18.20;66.90;;;;;;5126645;28;20038;-69
2022/10/26 02:16:15;;;;;;;33.47;8.88;;;18.20;66.90;;;;;;5126579;28;20211;-70
2022/10/26 02:19:10;;;;;;;34.60;8.23;;;18.20;67.00;;;;;;5108638;28;20039;-69
2022/10/26 02:21:43;;;;;;;25.38;8.75;;;18.20;66.90;;;;;;5088032;28;20028;-69
2022/10/26 02:24:11;;;;;;;31.52;9.27;;;18.20;67.00;;;;;;5126460;28;20039;-70
2022/10/26 02:26:39;;;;;;;39.33;10.30;;;18.20;66.90;;;;;;5126384;28;20027;-70
2022/10/26 02:29:08;;;;;;;34.35;9.57;;;18.20;66.90;;;;;;5126370;28;20214;-70
2022/10/26 02:31:36;;;;;;;38.20;9.32;;;18.20;66.90;;;;;;5126292;28;20061;-70
2022/10/26 02:34:06;;;;;;;30.83;9.32;;;18.20;66.90;;;;;;5126184;28;20078;-70
2022/10/26 02:36:35;;;;;;;35.67;7.70;;;18.20;66.90;;;;;;5126223;28;20233;-71
2022/10/26 02:39:02;;;;;;;;;;;18.20;66.90;;;;;;5126558;28;20046;-70
2022/10/26 02:41:31;;;;;;;24.60;8.00;;;18.20;66.80;;;;;;5126096;28;20198;-70
2022/10/26 02:44:06;;;;;;;;;;;18.20;66.80;;;;;;5126258;28;20120;-70
2022/10/26 02:46:33;;;;;;;27.52;7.40;;;18.20;67.50;;;;;;5126059;28;19911;-69
2022/10/26 02:48:59;;;;;;;34.00;9.50;;;18.20;66.90;;;;;;5125902;28;20019;-69
2022/10/26 02:51:27;;;;;;;28.67;8.60;;;18.20;66.80;;;;;;5125877;28;20024;-69
2022/10/26 02:54:22;;;;;;;28.05;7.95;;;18.20;66.90;;;;;;5125779;28;20043;-70
2022/10/26 02:56:59;;;;;;;28.55;9.02;;;18.20;66.90;;;;;;5094210;28;20315;-70
2022/10/26 02:59:29;;;;;;;25.85;7.40;;;18.20;66.80;;;;;;5125738;28;20339;-70
2022/10/26 03:01:55;;;;;;;32.97;9.32;;;18.20;66.80;;;;;;5125727;28;20011;-69
2022/10/26 03:04:31;;;;;;;41.08;10.27;;;18.20;66.90;;;;;;5125631;28;20015;-69
2022/10/26 03:06:57;;;;;;;22.92;7.85;;;18.20;66.90;;;;;;5125493;28;20023;-70
2022/10/26 03:09:22;;;;;;;22.95;6.97;;;18.20;66.90;;;;;;5125484;28;20022;-70
2022/10/26 03:11:48;;;;;;;31.40;8.05;;;18.20;66.80;;;;;;5125443;28;20359;-70
2022/10/26 03:14:14;;;;;;;27.20;7.60;;;18.20;66.90;;;;;;5125354;28;20090;-70
2022/10/26 03:16:40;;;;;;;29.17;8.75;;;18.20;66.90;;;;;;5125403;28;20016;-70
2022/10/26 03:19:06;;;;;;;26.75;7.72;;;18.20;66.90;;;;;;5125313;28;20012;-70
2022/10/26 03:21:31;;;;;;;25.75;8.52;;;18.20;66.90;;;;;;5125263;28;20050;-70
2022/10/26 03:23:57;;;;;;;26.35;7.50;;;18.20;66.90;;;;;;5125193;28;20016;-69
2022/10/26 03:26:23;;;;;;;32.38;8.30;;;18.20;67.00;;;;;;5125182;28;20237;-69
2022/10/26 03:28:49;;;;;;;26.35;7.03;;;18.20;67.00;;;;;;5125134;28;20038;-70
2022/10/26 03:31:14;;;;;;;23.70;7.40;;;18.10;67.00;;;;;;5125097;28;20078;-70
2022/10/26 03:33:40;;;;;;;24.60;7.30;;;18.10;67.00;;;;;;5124995;28;20022;-70
2022/10/26 03:36:06;;;;;;;24.88;7.10;;;18.10;66.90;;;;;;5125004;28;20019;-71
2022/10/26 03:38:32;;;;;;;27.15;7.60;;;18.20;67.00;;;;;;5124956;28;20011;-69
2022/10/26 03:40:58;;;;;;;25.45;7.75;;;18.10;66.90;;;;;;5124894;28;20045;-70
2022/10/26 03:43:24;;;;;;;24.85;7.95;;;18.10;66.90;;;;;;5124872;28;20012;-70
2022/10/26 03:45:49;;;;;;;30.63;7.85;;;18.10;66.90;;;;;;5124700;28;20070;-70
2022/10/26 03:48:15;;;;;;;29.88;8.25;;;18.20;66.90;;;;;;5124825;28;20015;-69
2022/10/26 03:50:41;;;;;;;32.50;8.43;;;18.10;66.80;;;;;;5124749;28;20061;-70
2022/10/26 03:53:07;;;;;;;31.98;8.65;;;18.10;66.90;;;;;;5124749;28;20390;-70
2022/10/26 03:55:32;;;;;;;25.50;8.60;;;18.10;66.90;;;;;;5124602;28;20023;-70
2022/10/26 03:57:58;;;;;;;20.13;6.60;;;18.10;66.90;;;;;;5124675;28;20023;-71
2022/10/26 04:00:24;;;;;;;23.58;7.57;;;18.10;66.90;;;;;;5124614;28;20015;-71
2022/10/26 04:02:58;;;;;;;30.75;7.28;;;18.10;67.00;;;;;;5124561;28;20215;-70
2022/10/26 04:05:26;;;;;;;23.77;7.43;;;18.10;67.00;;;;;;5124124;28;20027;-70
2022/10/26 04:07:57;;;;;;;34.72;9.43;;;18.10;66.80;;;;;;5124470;28;20050;-70
2022/10/26 04:10:24;;;;;;;22.92;6.80;;;18.10;66.80;;;;;;5124439;28;20066;-71
2022/10/26 04:12:50;;;;;;;23.85;7.15;;;18.10;66.90;;;;;;5124404;28;20042;-70
2022/10/26 04:15:16;;;;;;;26.02;6.90;;;18.10;66.90;;;;;;5124282;28;20319;-70
2022/10/26 04:17:42;;;;;;;27.15;8.52;;;18.10;66.90;;;;;;5124333;28;20020;-70
2022/10/26 04:20:09;;;;;;;29.45;6.97;;;18.10;66.90;;;;;;5124292;28;20250;-71
2022/10/26 04:22:35;;;;;;;30.67;8.20;;;18.10;67.00;;;;;;5124200;28;20019;-70
2022/10/26 04:25:02;;;;;;;23.77;7.28;;;18.10;66.90;;;;;;5124227;28;20019;-71
2022/10/26 04:27:28;;;;;;;25.35;6.80;;;18.10;66.80;;;;;;5124175;28;20026;-70
2022/10/26 04:29:54;;;;;;;28.35;8.30;;;18.10;66.80;;;;;;5124156;28;20020;-70
2022/10/26 04:32:19;;;;;;;23.08;6.13;;;18.10;66.90;;;;;;5124122;28;20023;-71
2022/10/26 04:34:45;;;;;;;27.85;7.00;;;18.10;66.80;;;;;;5124014;28;20024;-70
2022/10/26 04:37:11;;;;;;;26.25;7.75;;;18.10;66.80;;;;;;5124113;28;20022;-70
2022/10/26 04:39:37;;;;;;;24.20;6.95;;;18.10;66.80;;;;;;5105915;28;20278;-71
2022/10/26 04:42:02;;;;;;;18.52;6.20;;;18.10;66.80;;;;;;5105853;28;20015;-71
2022/10/26 04:44:28;;;;;;;25.00;7.43;;;18.10;66.80;;;;;;5123841;28;20383;-71
2022/10/26 04:46:54;;;;;;;23.95;7.57;;;18.10;66.80;;;;;;5124063;28;20087;-71
2022/10/26 04:49:20;;;;;;;29.20;7.95;;;18.10;66.80;;;;;;5123982;28;20023;-71
2022/10/26 04:51:45;;;;;;;25.52;6.28;;;18.10;66.80;;;;;;5123947;28;20310;-70
2022/10/26 04:54:11;;;;;;;16.73;5.95;;;18.10;66.90;;;;;;5123886;28;20030;-70
2022/10/26 04:56:37;;;;;;;22.45;7.32;;;18.10;66.80;;;;;;5123877;28;20020;-70
2022/10/26 04:59:03;;;;;;;23.98;6.63;;;18.10;66.90;;;;;;5123913;28;20022;-70
2022/10/26 05:01:30;;;;;;;23.20;7.60;;;18.10;66.90;;;;;;5123875;28;20505;-70
2022/10/26 05:03:56;;;;;;;28.40;6.80;;;18.10;66.80;;;;;;5123785;28;20030;-70
2022/10/26 05:06:22;;;;;;;20.83;7.57;;;18.00;66.90;;;;;;5123807;28;20019;-71
2022/10/26 05:08:47;;;;;;;23.65;6.93;;;18.00;66.80;;;;;;5123782;28;20283;-70
2022/10/26 05:11:15;;;;;;;20.80;6.55;;;18.00;66.80;;;;;;5123735;28;20087;-70
2022/10/26 05:13:41;;;;;;;21.63;7.03;;;18.10;66.80;;;;;;5123712;28;20064;-70
2022/10/26 05:16:06;;;;;;;20.75;6.88;;;18.10;66.80;;;;;;5124194;28;20012;-70
2022/10/26 05:18:32;;;;;;;28.00;7.40;;;18.00;66.80;;;;;;5127681;28;20022;-70
2022/10/26 05:20:58;;;;;;;23.77;7.13;;;18.00;66.70;;;;;;5127677;28;20075;-70
2022/10/26 05:23:24;;;;;;;18.73;7.57;;;18.00;66.70;;;;;;5127686;28;20215;-71
2022/10/26 05:25:49;;;;;;;23.83;7.22;;;18.10;66.70;;;;;;5127633;28;20016;-71
2022/10/26 05:28:17;;;;;;;21.42;5.68;;;18.00;66.60;;;;;;5143560;27;20016;-71
2022/10/26 05:30:44;;;;;;;22.25;7.47;;;18.10;66.80;;;;;;5109320;28;20086;-71
2022/10/26 05:33:11;;;;;;;24.88;6.80;;;18.00;66.70;;;;;;5127479;28;20022;-71
2022/10/26 05:35:37;;;;;;;22.92;7.00;;;18.00;66.60;;;;;;5127310;28;20040;-70
2022/10/26 05:38:15;;;;;;;20.70;7.43;;;18.00;66.60;;;;;;5127389;28;20024;-71
2022/10/26 05:40:51;;;;;;;18.73;6.30;;;18.00;66.70;;;;;;5127348;28;20015;-69
2022/10/26 05:43:18;;;;;;;26.23;7.13;;;18.00;66.60;;;;;;5127583;28;20449;-70
2022/10/26 05:45:44;;;;;;;21.08;6.22;;;18.00;66.60;;;;;;5127107;28;20058;-69
2022/10/26 05:48:10;;;;;;;20.17;6.13;;;18.00;66.60;;;;;;5127191;28;20047;-70
2022/10/26 05:50:36;;;;;;;17.52;5.68;;;18.10;66.50;;;;;;5127118;28;20020;-70
2022/10/26 05:53:01;;;;;;;21.42;6.80;;;18.10;66.60;;;;;;5127037;28;20203;-70
2022/10/26 05:55:28;;;;;;;23.35;6.22;;;18.10;66.50;;;;;;5126925;28;20083;-69
2022/10/26 05:57:54;;;;;;;22.25;6.57;;;18.00;66.50;;;;;;5126945;28;20011;-70
2022/10/26 06:00:22;;;;;;;23.67;8.55;;;18.00;66.60;;;;;;5108735;28;20023;-69
2022/10/26 06:03:12;;;;;;;22.85;6.40;;;18.00;66.60;;;;;;5108697;28;20218;-71
2022/10/26 06:05:58;;;;;;;20.55;6.18;;;18.10;66.60;;;;;;5126855;28;20022;-71
2022/10/26 06:08:27;;;;;;;17.40;6.57;;;18.00;66.40;;;;;;5126825;28;20033;-70
2022/10/26 06:10:54;;;;;;;19.35;5.50;;;18.10;66.50;;;;;;5126713;28;20031;-71
2022/10/26 06:13:21;;;;;;;19.88;5.85;;;18.10;66.50;;;;;;5126704;28;20322;-70
2022/10/26 06:15:56;;;;;;;23.40;6.15;;;18.10;66.40;;;;;;5126582;28;20267;-70
2022/10/26 06:18:49;;;;;;;24.75;6.95;;;18.10;66.50;;;;;;5126552;28;20076;-70
2022/10/26 06:21:21;;;;;;;20.48;6.07;;;18.10;66.50;;;;;;5126539;28;20038;-70
2022/10/26 06:24:16;;;;;;;20.52;5.65;;;18.10;66.50;;;;;;5126466;28;20333;-69
2022/10/26 06:27:14;;;;;;;20.17;5.50;;;18.10;66.50;;;;;;5108739;28;20046;-70
2022/10/26 06:29:43;;;;;;;;;;;18.10;66.50;;;;;;5108685;28;20020;-70
2022/10/26 06:32:09;;;;;;;;;;;18.00;66.30;;;;;;5126743;28;19900;-71
2022/10/26 06:34:38;;;;;;;17.27;6.47;;;18.10;66.40;;;;;;5126184;28;20130;-70
2022/10/26 06:37:04;;;;;;;17.73;6.20;;;18.00;66.50;;;;;;5126162;28;20011;-70
2022/10/26 06:39:35;;;;;;;20.65;5.43;;;18.10;66.40;;;;;;5126098;28;20078;-71
2022/10/26 06:42:01;;;;;;;19.45;6.05;;;18.10;66.40;;;;;;5126135;28;20069;-70
2022/10/26 06:44:27;;;;;;;22.63;6.40;;;18.10;66.40;;;;;;5125886;28;20036;-71
2022/10/26 06:47:02;;;;;;;21.90;5.85;;;18.00;66.50;;;;;;5107812;28;20031;-71
2022/10/26 06:49:34;;;;;;;19.90;6.25;;;18.10;66.50;;;;;;5125995;28;20057;-71
2022/10/26 06:52:08;;;;;;;21.38;6.45;;;18.10;66.40;;;;;;5107659;28;20022;-70
2022/10/26 06:54:40;;;;;;;20.08;4.80;;;18.10;66.40;;;;;;5125842;28;20083;-71
2022/10/26 06:57:10;;;;;;;19.25;7.50;;;18.10;66.40;;;;;;5125853;28;20315;-71
2022/10/26 06:59:41;;;;;;;20.92;5.75;;;18.10;66.40;;;;;;5125765;28;20016;-69
2022/10/26 07:02:10;;;;;;;24.55;7.05;;;18.10;66.30;;;;;;5125724;28;20079;-70
2022/10/26 07:04:36;;;;;;;;;;;18.10;66.30;;;;;;5126109;28;20236;-70
2022/10/26 07:20:50;;;;;;;28.95;7.70;;;18.20;65.60;;;;;;5121616;27;20610;-66
2022/10/26 07:23:16;;;;;;;16.17;4.72;;;18.30;65.70;;;;;;5121370;28;20028;-66
2022/10/26 07:25:42;;;;;;;19.33;7.22;;;18.40;65.60;;;;;;5121311;28;20158;-67
2022/10/26 07:28:09;;;;;;;22.52;5.88;;;18.40;65.60;;;;;;5121139;28;20214;-66
2022/10/26 07:30:36;;;;;;;20.55;6.22;;;18.40;65.60;;;;;;5120034;28;20176;-66
2022/10/26 07:33:11;;;;;;;16.83;5.55;;;18.40;65.50;;;;;;5121206;28;20219;-66
2022/10/26 07:35:37;;;;;;;21.52;5.97;;;18.40;65.50;;;;;;5121164;28;20132;-66
2022/10/26 07:38:03;;;;;;;18.83;5.22;;;18.40;65.60;;;;;;5121087;28;20019;-67
2022/10/26 07:40:30;;;;;;;15.43;5.45;;;18.40;65.50;;;;;;5120992;28;20299;-65
2022/10/26 07:42:57;;;;;;;17.75;6.45;;;18.40;65.70;;;;;;5120987;28;20016;-66
2022/10/26 07:45:23;;;;;;;18.63;5.63;;;18.30;65.70;;;;;;5120924;28;20019;-67
2022/10/26 07:47:49;;;;;;;19.58;4.95;;;18.30;66.40;;;;;;5120870;28;20219;-65
2022/10/26 07:50:15;;;;;;;18.63;5.72;;;18.40;65.60;;;;;;5119597;28;20095;-66
2022/10/26 07:52:41;;;;;;;21.65;7.13;;;18.40;65.60;;;;;;5120826;28;20349;-66
2022/10/26 07:55:08;;;;;;;14.95;6.03;;;18.40;65.60;;;;;;5120755;28;20015;-67
2022/10/26 07:57:34;;;;;;;21.05;6.47;;;18.30;65.70;;;;;;5120740;28;20019;-66
2022/10/26 08:00:00;;;;;;;14.30;6.47;;;18.30;65.70;;;;;;5120649;28;20117;-67
2022/10/26 08:02:26;;;;;;;17.88;5.53;;;18.30;66.30;;;;;;5120634;28;20359;-67
2022/10/26 08:04:52;;;;;;;16.42;4.55;;;18.40;65.70;;;;;;5120493;28;20307;-66
2022/10/26 08:07:17;;;;;;;17.15;5.68;;;18.40;65.70;;;;;;5120509;28;20031;-66
2022/10/26 08:09:43;;;;;;;15.45;5.65;;;18.40;65.90;;;;;;5120376;28;20039;-66
2022/10/26 08:12:09;;;;;;;15.73;6.10;;;18.40;65.80;;;;;;5120407;28;20026;-66
2022/10/26 08:14:35;;;;;;;20.05;5.60;;;18.30;65.70;;;;;;5120378;28;20310;-65
2022/10/26 08:17:00;;;;;;;17.00;5.18;;;18.40;65.70;;;;;;5120314;28;20023;-67
2022/10/26 08:19:26;;;;;;;18.10;5.40;;;18.40;65.80;;;;;;5120078;28;20039;-67
2022/10/26 08:21:52;;;;;;;18.42;6.00;;;18.40;65.70;;;;;;5106367;28;20027;-67
2022/10/26 08:24:21;;;;;;;18.50;6.07;;;18.40;65.70;;;;;;5106572;28;20054;-68
2022/10/26 08:26:46;;;;;;;19.13;5.20;;;18.40;65.70;;;;;;5106566;28;20016;-67
2022/10/26 08:29:12;;;;;;;20.35;5.60;;;18.40;65.70;;;;;;5106455;28;20310;-66
2022/10/26 08:31:38;;;;;;;13.95;5.63;;;18.40;65.70;;;;;;5106460;28;20055;-66
2022/10/26 08:34:04;;;;;;;14.02;5.30;;;18.40;65.70;;;;;;5106440;28;20043;-65
2022/10/26 08:36:30;;;;;;;18.58;5.32;;;18.40;65.60;;;;;;5106291;28;20109;-66
2022/10/26 08:38:55;;;;;;;16.60;5.00;;;18.40;65.70;;;;;;5106296;28;20027;-66
2022/10/26 08:41:32;;;;;;;17.73;6.85;;;18.40;65.60;;;;;;5106260;28;20024;-65
2022/10/26 08:44:03;;;;;;;17.67;5.45;;;18.40;65.60;;;;;;5106227;28;20062;-65
2022/10/26 08:46:35;;;;;;;14.52;5.35;;;18.40;65.70;;;;;;5106184;28;20020;-66
2022/10/26 08:49:36;;;;;;;18.05;5.22;;;18.40;65.60;;;;;;5106100;28;20020;-66
2022/10/26 08:52:03;;;;;;;13.00;4.75;;;18.40;65.50;;;;;;5095813;28;20039;-66
2022/10/26 08:54:43;;;;;;;16.45;5.78;;;18.50;65.70;;;;;;5106014;28;20008;-66
2022/10/26 08:57:24;;;;;;;14.25;5.65;;;18.40;65.50;;;;;;5105979;28;20016;-66
2022/10/26 09:00:18;;;;;;;17.42;5.57;;;18.50;65.50;;;;;;5105933;28;20311;-67
2022/10/26 09:02:48;;;;;;;15.32;5.63;;;18.50;65.50;;;;;;5097622;28;20028;-66
2022/10/26 09:05:17;;;;;;;14.63;5.18;;;18.50;65.50;;;;;;5105795;28;20311;-66
2022/10/26 09:08:01;;;;;;;17.05;5.45;;;18.50;65.40;;;;;;5105788;28;20035;-65
2022/10/26 09:10:33;;;;;;;18.20;5.63;;;18.50;65.30;;;;;;5105717;28;20388;-65
2022/10/26 09:13:05;;;;;;;14.38;5.53;;;18.60;65.30;;;;;;5104463;28;20307;-67
2022/10/26 09:15:58;;;;;;;14.05;5.10;;;18.60;65.40;;;;;;5105598;28;20027;-66
2022/10/26 09:18:30;;;;;;;12.20;4.50;;;18.60;65.20;;;;;;5105431;28;20043;-67
2022/10/26 09:21:09;;;;;;;14.05;5.68;;;18.60;65.20;;;;;;5105540;28;20032;-66
2022/10/26 09:23:53;;;;;;;13.35;4.70;;;18.60;65.20;;;;;;5105495;28;20024;-66
2022/10/26 09:26:38;;;;;;;14.82;4.57;;;18.60;65.20;;;;;;5105399;28;20282;-66
2022/10/26 09:29:10;;;;;;;15.50;5.15;;;18.50;65.30;;;;;;5105269;28;20079;-66
2022/10/26 09:31:41;;;;;;;15.27;6.47;;;18.60;65.60;;;;;;5104714;28;20016;-66
2022/10/26 09:34:17;;;;;;;13.95;4.80;;;18.60;65.60;;;;;;5105005;28;20283;-67
2022/10/26 09:36:43;;;;;;;16.35;5.45;;;18.50;65.60;;;;;;5105229;28;20042;-66
2022/10/26 09:39:32;;;;;;;18.40;5.45;;;18.50;65.80;;;;;;5105158;28;20016;-66
2022/10/26 09:42:09;;;;;;;16.83;5.45;;;18.50;65.90;;;;;;5105155;28;20016;-67
2022/10/26 09:44:44;;;;;;;16.02;5.75;;;18.40;65.90;;;;;;5105077;28;20023;-66
2022/10/26 09:47:36;;;;;;;16.40;5.50;;;18.40;65.90;;;;;;5105025;28;20057;-67
2022/10/26 09:50:21;;;;;;;15.65;4.60;;;18.40;65.80;;;;;;5104916;28;20020;-66
2022/10/26 09:52:47;;;;;;;17.42;6.18;;;18.40;65.80;;;;;;5103743;28;20119;-67
2022/10/26 09:55:13;;;;;;;15.05;5.13;;;18.40;65.90;;;;;;5104793;28;20299;-67
2022/10/26 09:57:45;;;;;;;14.52;5.38;;;18.40;65.90;;;;;;5104797;28;20023;-66
2022/10/26 10:00:16;;;;;;;16.52;4.70;;;18.40;65.90;;;;;;5104741;28;20237;-66
2022/10/26 10:02:44;;;;;;;12.82;4.88;;;18.40;65.90;;;;;;5104744;28;20042;-66
2022/10/26 10:05:33;;;;;;;17.15;5.22;;;18.40;66.00;;;;;;5104680;28;20047;-66
2022/10/26 10:08:28;;;;;;;12.70;4.50;;;18.40;65.90;;;;;;5104602;28;20081;-66
2022/10/26 10:10:54;;;;;;;12.75;3.85;;;18.40;66.00;;;;;;5090423;28;20042;-67
2022/10/26 10:13:22;;;;;;;12.05;5.25;;;18.40;66.10;;;;;;5104508;28;20012;-66
2022/10/26 10:16:01;;;;;;;10.10;4.43;;;18.40;66.10;;;;;;5104499;28;20027;-66
2022/10/26 10:18:26;;;;;;;;;;;18.40;66.00;;;;;;5104741;28;20019;-66
2022/10/26 10:20:57;;;;;;;13.52;4.63;;;18.40;66.00;;;;;;5103474;28;19908;-67
2022/10/26 10:23:45;;;;;;;14.52;4.82;;;18.40;66.10;;;;;;5104374;28;20016;-66
2022/10/26 10:26:11;;;;;;;;;;;18.40;66.00;;;;;;5104755;28;20023;-66
2022/10/26 10:28:38;;;;;;;18.17;5.10;;;18.40;65.90;;;;;;5104192;28;19904;-66
2022/10/26 10:31:22;;;;;;;11.98;4.35;;;18.40;66.00;;;;;;5103026;28;20240;-67
2022/10/26 10:33:48;;;;;;;14.40;4.32;;;18.50;66.00;;;;;;5104199;28;20023;-66
2022/10/26 10:36:28;;;;;;;14.30;4.57;;;18.50;66.00;;;;;;5104121;28;20016;-66
2022/10/26 10:38:55;;;;;;;15.60;5.10;;;18.50;65.90;;;;;;5104129;28;20089;-66
2022/10/26 10:41:38;;;;;;;15.82;4.63;;;18.50;65.90;;;;;;5104045;28;20311;-67
2022/10/26 10:44:04;;;;;;;13.45;5.55;;;18.50;65.80;;;;;;5103747;28;20024;-66
2022/10/26 10:46:30;;;;;;;12.23;4.95;;;18.50;66.00;;;;;;5103980;28;20023;-67
2022/10/26 10:49:16;;;;;;;10.95;4.43;;;18.50;66.70;;;;;;5103855;28;20206;-67
2022/10/26 10:51:43;;;;;;;14.77;5.38;;;18.50;66.00;;;;;;5103964;28;20023;-65
2022/10/26 10:54:36;;;;;;;9.60;4.70;;;18.50;66.10;;;;;;5103915;28;20307;-66
2022/10/26 10:57:23;;;;;;;15.18;4.88;;;18.50;65.90;;;;;;5101680;28;20062;-66
2022/10/26 11:00:03;;;;;;;16.27;4.30;;;18.50;66.00;;;;;;5103850;28;20073;-65
2022/10/26 11:02:49;;;;;;;13.43;5.28;;;18.50;66.00;;;;;;5103834;28;20016;-66
2022/10/26 11:05:24;;;;;;;14.35;4.60;;;18.50;65.90;;;;;;5103412;28;20261;-66
2022/10/26 11:08:13;;;;;;;12.20;4.78;;;18.50;66.00;;;;;;5103767;28;20024;-67
2022/10/26 11:10:46;;;;;;;16.67;4.07;;;18.50;66.00;;;;;;5072381;28;20309;-66
2022/10/26 11:13:30;;;;;;;14.88;4.43;;;18.50;66.00;;;;;;5103716;28;20088;-66
2022/10/26 11:16:02;;;;;;;11.55;3.78;;;18.50;65.80;;;;;;5103684;28;20028;-66
2022/10/26 11:18:38;;;;;;;11.00;4.15;;;18.50;65.90;;;;;;5103544;28;20016;-66
2022/10/26 11:21:32;;;;;;;11.02;3.83;;;18.60;65.80;;;;;;5103628;28;20023;-66
2022/10/26 11:24:38;;;;;;;14.55;4.35;;;18.60;65.70;;;;;;5103255;28;20039;-67
2022/10/26 11:27:16;;;;;;;11.63;4.20;;;18.60;65.50;;;;;;5103567;28;20018;-67
2022/10/26 11:30:02;;;;;;;17.27;4.90;;;18.60;65.60;;;;;;5103467;28;20023;-66
2022/10/26 11:32:50;;;;;;;14.85;4.35;;;18.60;65.70;;;;;;5103548;28;20076;-66
2022/10/26 11:35:31;;;;;;;13.13;3.78;;;18.60;65.70;;;;;;5103456;28;20058;-66
2022/10/26 11:38:15;;;;;;;14.13;5.07;;;18.60;65.70;;;;;;5103445;28;20020;-67
2022/10/26 11:40:52;;;;;;;8.73;4.05;;;18.50;65.90;;;;;;5103394;28;20016;-67
2022/10/26 11:43:33;;;;;;;12.20;3.78;;;18.50;65.90;;;;;;5103447;28;20042;-65
2022/10/26 11:46:05;;;;;;;11.77;4.38;;;18.60;65.90;;;;;;5103395;28;20034;-66
2022/10/26 11:48:53;;;;;;;8.98;3.72;;;18.50;66.00;;;;;;5103254;28;20023;-66
2022/10/26 11:51:39;;;;;;;;;;;18.50;66.60;;;;;;5103795;28;20238;-65
2022/10/26 11:54:14;;;;;;;12.35;4.40;;;18.50;66.00;;;;;;5103312;28;19900;-66
2022/10/26 11:56:51;;;;;;;13.75;4.13;;;18.50;66.10;;;;;;5106053;28;20079;-66
2022/10/26 11:59:23;;;;;;;11.32;3.97;;;18.50;66.00;;;;;;5107110;28;20066;-67
2022/10/26 12:01:57;;;;;;;10.43;4.10;;;18.50;66.00;;;;;;5107043;28;20061;-66
2022/10/26 12:04:29;;;;;;;11.30;4.82;;;18.50;66.10;;;;;;5107030;28;20322;-66
2022/10/26 12:06:58;;;;;;;12.05;4.18;;;18.50;66.10;;;;;;5105804;28;20425;-67
2022/10/26 12:09:30;;;;;;;9.80;3.70;;;18.50;66.10;;;;;;5106804;28;20027;-67
2022/10/26 12:12:06;;;;;;;9.70;4.25;;;18.50;66.10;;;;;;5106858;28;20016;-67
2022/10/26 12:14:56;;;;;;;10.93;4.80;;;18.50;66.00;;;;;;5106818;28;20057;-66
2022/10/26 12:17:29;;;;;;;10.82;4.78;;;18.50;65.90;;;;;;5106774;28;20246;-67
2022/10/26 12:20:05;;;;;;;15.50;4.85;;;18.60;65.70;;;;;;5105380;28;20047;-66
2022/10/26 12:22:38;;;;;;;9.85;4.10;;;18.70;65.50;;;;;;5106703;28;20065;-66
2022/10/26 12:25:09;;;;;;;11.18;4.72;;;18.70;65.40;;;;;;5106651;28;20214;-66
2022/10/26 12:27:38;;;;;;;9.75;4.20;;;18.70;65.30;;;;;;5106577;28;20024;-65
2022/10/26 12:30:27;;;;;;;10.25;3.83;;;18.80;65.40;;;;;;5106416;28;20200;-66
2022/10/26 12:32:58;;;;;;;9.20;3.80;;;18.70;65.40;;;;;;5106506;28;20108;-66
2022/10/26 12:35:38;;;;;;;10.35;4.20;;;18.70;65.60;;;;;;5106436;28;20104;-66
2022/10/26 12:38:22;;;;;;;12.93;4.82;;;18.60;65.70;;;;;;5106368;28;20020;-66
2022/10/26 12:41:09;;;;;;;13.63;4.38;;;18.60;65.70;;;;;;5106303;28;20078;-67
2022/10/26 12:43:38;;;;;;;11.35;3.65;;;18.60;65.90;;;;;;5095616;28;20076;-66
2022/10/26 12:46:12;;;;;;;10.23;4.68;;;18.60;66.10;;;;;;5106233;28;20085;-65
2022/10/26 12:48:46;;;;;;;7.38;3.47;;;18.60;66.00;;;;;;5106122;28;20362;-66
2022/10/26 12:51:21;;;;;;;11.88;4.32;;;18.60;66.00;;;;;;5106105;28;20024;-67
2022/10/26 12:53:59;;;;;;;12.75;3.85;;;18.60;66.00;;;;;;5104892;28;20012;-67
2022/10/26 12:56:41;;;;;;;8.77;4.22;;;18.50;65.90;;;;;;5106052;28;20249;-67
2022/10/26 12:59:31;;;;;;;10.55;3.83;;;18.60;66.00;;;;;;5106035;28;20341;-67
2022/10/26 13:02:34;;;;;;;11.18;3.75;;;18.60;66.00;;;;;;5105938;28;20037;-66
2022/10/26 13:05:11;;;;;;;13.63;3.90;;;18.60;66.00;;;;;;5105882;28;20337;-66
2022/10/26 13:07:39;;;;;;;9.73;4.17;;;18.60;66.10;;;;;;5105730;28;20272;-66
2022/10/26 13:10:11;;;;;;;7.88;3.08;;;18.60;66.10;;;;;;5105724;28;20020;-66
2022/10/26 13:12:54;;;;;;;8.88;3.70;;;18.60;66.00;;;;;;5105664;28;20012;-66
2022/10/26 13:15:52;;;;;;;7.68;3.88;;;18.60;65.90;;;;;;5105698;28;20239;-66
2022/10/26 13:18:20;;;;;;;11.73;3.58;;;18.70;65.60;;;;;;5105666;28;20016;-66